sensor_id;sensor_type;location;lat;lon;timestamp;pressure;altitude;pressure_sealevel;temperature;humidity
57050;BME280;42935;50.966;16.992;2022-09-20T00:01:52;101397.05;;;8.36;100.00
57050;BME280;42935;50.966;16.992;2022-09-20T00:05:00;101395.25;;;8.41;100.00
57050;BME280;42935;50.966;16.992;2022-09-20T00:08:14;101393.16;;;8.42;100.00
57050;BME280;42935;50.966;16.992;2022-09-20T00:11:27;101392.27;;;8.45;100.00
57050;BME280;42935;50.966;16.992;2022-09-20T00:14:41;101396.84;;;8.51;100.00
57050;BME280;42935;50.966;16.992;2022-09-20T00:17:52;101397.23;;;8.51;100.00
57050;BME280;42935;50.966;16.992;2022-09-20T00:21:04;101394.41;;;8.58;100.00
57050;BME280;42935;50.966;16.992;2022-09-20T00:24:17;101395.98;;;8.58;100.00
57050;BME280;42935;50.966;16.992;2022-09-20T00:27:27;101384.82;;;8.52;100.00
57050;BME280;42935;50.966;16.992;2022-09-20T00:30:40;101387.08;;;8.54;100.00
57050;BME280;42935;50.966;16.992;2022-09-20T00:33:55;101400.12;;;8.60;100.00
57050;BME280;42935;50.966;16.992;2022-09-20T00:37:18;101399.69;;;8.53;100.00
57050;BME280;42935;50.966;16.992;2022-09-20T00:40:29;101406.43;;;8.56;100.00
57050;BME280;42935;50.966;16.992;2022-09-20T00:43:46;101398.20;;;8.46;100.00
57050;BME280;42935;50.966;16.992;2022-09-20T00:46:56;101405.96;;;8.48;100.00
57050;BME280;42935;50.966;16.992;2022-09-20T00:53:36;101404.22;;;8.38;100.00
57050;BME280;42935;50.966;16.992;2022-09-20T00:56:51;101403.09;;;8.34;100.00
57050;BME280;42935;50.966;16.992;2022-09-20T01:00:07;101392.59;;;8.27;100.00
57050;BME280;42935;50.966;16.992;2022-09-20T01:03:18;101400.55;;;8.28;100.00
57050;BME280;42935;50.966;16.992;2022-09-20T01:06:33;101404.58;;;8.23;100.00
57050;BME280;42935;50.966;16.992;2022-09-20T01:09:43;101406.34;;;8.18;100.00
57050;BME280;42935;50.966;16.992;2022-09-20T01:12:55;101404.52;;;8.16;100.00
57050;BME280;42935;50.966;16.992;2022-09-20T01:16:13;101405.26;;;8.10;100.00
57050;BME280;42935;50.966;16.992;2022-09-20T01:29:49;101401.83;;;8.10;100.00
57050;BME280;42935;50.966;16.992;2022-09-20T01:33:15;101404.01;;;8.16;100.00
57050;BME280;42935;50.966;16.992;2022-09-20T01:36:35;101393.21;;;8.13;100.00
57050;BME280;42935;50.966;16.992;2022-09-20T01:46:32;101397.38;;;8.19;100.00
57050;BME280;42935;50.966;16.992;2022-09-20T02:03:29;101395.02;;;8.04;100.00
57050;BME280;42935;50.966;16.992;2022-09-20T02:17:01;101398.30;;;8.02;100.00
57050;BME280;42935;50.966;16.992;2022-09-20T02:44:06;101413.44;;;7.89;100.00
57050;BME280;42935;50.966;16.992;2022-09-20T02:50:55;101422.66;;;7.94;100.00
57050;BME280;42935;50.966;16.992;2022-09-20T02:54:21;101429.35;;;7.89;100.00
57050;BME280;42935;50.966;16.992;2022-09-20T03:41:57;101446.25;;;7.78;100.00
57050;BME280;42935;50.966;16.992;2022-09-20T04:19:43;101473.80;;;7.93;100.00
57050;BME280;42935;50.966;16.992;2022-09-20T04:23:06;101473.91;;;7.83;100.00
57050;BME280;42935;50.966;16.992;2022-09-20T04:26:28;101476.48;;;7.88;100.00
57050;BME280;42935;50.966;16.992;2022-09-20T04:36:36;101486.83;;;7.97;100.00
57050;BME280;42935;50.966;16.992;2022-09-20T04:40:02;101481.88;;;7.94;100.00
57050;BME280;42935;50.966;16.992;2022-09-20T04:43:36;101478.63;;;7.93;100.00
57050;BME280;42935;50.966;16.992;2022-09-20T04:53:42;101481.33;;;8.00;100.00
57050;BME280;42935;50.966;16.992;2022-09-20T04:57:08;101481.06;;;8.05;100.00
57050;BME280;42935;50.966;16.992;2022-09-20T05:00:22;101480.12;;;8.06;100.00
57050;BME280;42935;50.966;16.992;2022-09-20T05:20:49;101506.40;;;8.23;100.00
57050;BME280;42935;50.966;16.992;2022-09-20T05:30:58;101513.17;;;8.31;100.00
57050;BME280;42935;50.966;16.992;2022-09-20T05:37:49;101506.81;;;8.29;100.00
57050;BME280;42935;50.966;16.992;2022-09-20T05:48:37;101521.72;;;8.55;100.00
57050;BME280;42935;50.966;16.992;2022-09-20T05:52:05;101517.81;;;8.49;100.00
57050;BME280;42935;50.966;16.992;2022-09-20T05:55:26;101530.59;;;8.59;100.00
57050;BME280;42935;50.966;16.992;2022-09-20T06:09:13;101543.13;;;8.75;100.00
57050;BME280;42935;50.966;16.992;2022-09-20T06:12:39;101545.44;;;8.82;100.00
57050;BME280;42935;50.966;16.992;2022-09-20T06:16:01;101537.99;;;8.83;100.00
57050;BME280;42935;50.966;16.992;2022-09-20T06:22:54;101545.87;;;8.90;100.00
57050;BME280;42935;50.966;16.992;2022-09-20T06:26:23;101544.48;;;8.94;100.00
57050;BME280;42935;50.966;16.992;2022-09-20T06:29:39;101547.15;;;9.04;100.00
57050;BME280;42935;50.966;16.992;2022-09-20T06:36:33;101530.82;;;8.76;100.00
57050;BME280;42935;50.966;16.992;2022-09-20T06:40:30;101553.43;;;8.91;100.00
57050;BME280;42935;50.966;16.992;2022-09-20T06:43:49;101553.79;;;8.90;100.00
57050;BME280;42935;50.966;16.992;2022-09-20T06:46:59;101555.34;;;8.84;100.00
57050;BME280;42935;50.966;16.992;2022-09-20T06:50:15;101559.83;;;8.78;100.00
57050;BME280;42935;50.966;16.992;2022-09-20T06:53:52;101550.82;;;8.83;100.00
57050;BME280;42935;50.966;16.992;2022-09-20T06:57:05;101563.85;;;8.87;100.00
57050;BME280;42935;50.966;16.992;2022-09-20T07:00:19;101565.19;;;8.92;100.00
57050;BME280;42935;50.966;16.992;2022-09-20T12:00:46;101657.71;;;12.80;100.00
57050;BME280;42935;50.966;16.992;2022-09-20T12:04:09;101657.64;;;12.55;100.00
57050;BME280;42935;50.966;16.992;2022-09-20T12:11:12;101650.59;;;13.56;100.00
57050;BME280;42935;50.966;16.992;2022-09-20T12:14:24;101639.60;;;14.16;95.88
57050;BME280;42935;50.966;16.992;2022-09-20T12:24:19;101653.66;;;13.29;99.53
57050;BME280;42935;50.966;16.992;2022-09-20T12:27:57;101651.58;;;13.95;100.00
57050;BME280;42935;50.966;16.992;2022-09-20T12:34:38;101662.89;;;13.55;100.00
57050;BME280;42935;50.966;16.992;2022-09-20T12:37:48;101665.75;;;13.26;100.00
57050;BME280;42935;50.966;16.992;2022-09-20T12:44:32;101654.72;;;13.97;100.00
57050;BME280;42935;50.966;16.992;2022-09-20T12:47:53;101646.05;;;13.84;97.09
57050;BME280;42935;50.966;16.992;2022-09-20T12:51:18;101656.31;;;14.76;92.75
57050;BME280;42935;50.966;16.992;2022-09-20T12:54:50;101646.84;;;15.25;86.56
57050;BME280;42935;50.966;16.992;2022-09-20T13:01:30;101653.28;;;15.20;82.95
57050;BME280;42935;50.966;16.992;2022-09-20T13:04:52;101665.76;;;14.50;87.17
57050;BME280;42935;50.966;16.992;2022-09-20T13:11:33;101668.95;;;14.28;95.52
57050;BME280;42935;50.966;16.992;2022-09-20T13:14:44;101671.45;;;13.93;93.85
57050;BME280;42935;50.966;16.992;2022-09-20T13:17:58;101677.11;;;13.81;98.49
57050;BME280;42935;50.966;16.992;2022-09-20T13:21:09;101672.06;;;13.54;99.97
57050;BME280;42935;50.966;16.992;2022-09-20T13:24:20;101680.71;;;13.50;100.00
57050;BME280;42935;50.966;16.992;2022-09-20T13:34:21;101670.86;;;14.09;100.00
57050;BME280;42935;50.966;16.992;2022-09-20T13:37:33;101677.54;;;14.76;97.87
57050;BME280;42935;50.966;16.992;2022-09-20T13:40:45;101669.12;;;14.24;98.76
57050;BME280;42935;50.966;16.992;2022-09-20T13:44:29;101685.16;;;13.59;100.00
57050;BME280;42935;50.966;16.992;2022-09-20T13:48:10;101689.02;;;12.89;100.00
57050;BME280;42935;50.966;16.992;2022-09-20T13:51:26;101693.28;;;12.98;100.00
57050;BME280;42935;50.966;16.992;2022-09-20T13:54:38;101692.27;;;12.97;100.00
57050;BME280;42935;50.966;16.992;2022-09-20T13:57:52;101700.85;;;12.83;100.00
57050;BME280;42935;50.966;16.992;2022-09-20T14:01:34;101697.66;;;12.81;100.00
57050;BME280;42935;50.966;16.992;2022-09-20T14:04:44;101699.77;;;12.42;100.00
57050;BME280;42935;50.966;16.992;2022-09-20T14:07:58;101699.33;;;12.18;100.00
57050;BME280;42935;50.966;16.992;2022-09-20T14:11:17;101698.79;;;12.43;100.00
57050;BME280;42935;50.966;16.992;2022-09-20T14:14:28;101688.68;;;12.46;100.00
57050;BME280;42935;50.966;16.992;2022-09-20T14:17:39;101695.93;;;12.62;100.00
57050;BME280;42935;50.966;16.992;2022-09-20T14:20:48;101696.69;;;12.45;100.00
57050;BME280;42935;50.966;16.992;2022-09-20T14:24:02;101694.98;;;12.21;100.00
57050;BME280;42935;50.966;16.992;2022-09-20T14:27:42;101696.08;;;12.36;100.00
57050;BME280;42935;50.966;16.992;2022-09-20T14:34:15;101685.61;;;12.28;100.00
57050;BME280;42935;50.966;16.992;2022-09-20T14:40:47;101693.77;;;12.33;100.00
57050;BME280;42935;50.966;16.992;2022-09-20T14:43:59;101686.87;;;12.66;100.00
57050;BME280;42935;50.966;16.992;2022-09-20T14:47:14;101692.81;;;12.73;100.00
57050;BME280;42935;50.966;16.992;2022-09-20T14:50:31;101694.07;;;12.77;100.00
57050;BME280;42935;50.966;16.992;2022-09-20T14:53:43;101697.03;;;12.73;100.00
57050;BME280;42935;50.966;16.992;2022-09-20T14:56:54;101697.73;;;12.80;100.00
57050;BME280;42935;50.966;16.992;2022-09-20T15:03:57;101681.87;;;13.34;100.00
57050;BME280;42935;50.966;16.992;2022-09-20T15:07:12;101685.52;;;13.30;100.00
57050;BME280;42935;50.966;16.992;2022-09-20T15:10:22;101691.38;;;13.51;100.00
57050;BME280;42935;50.966;16.992;2022-09-20T15:13:30;101681.98;;;14.69;100.00
57050;BME280;42935;50.966;16.992;2022-09-20T15:16:41;101683.36;;;16.07;100.00
57050;BME280;42935;50.966;16.992;2022-09-20T15:19:51;101675.59;;;16.62;86.18
57050;BME280;42935;50.966;16.992;2022-09-20T15:23:32;101679.25;;;16.83;79.92
57050;BME280;42935;50.966;16.992;2022-09-20T15:26:50;101676.65;;;18.11;89.02
57050;BME280;42935;50.966;16.992;2022-09-20T15:30:01;101674.84;;;18.24;82.63
57050;BME280;42935;50.966;16.992;2022-09-20T15:33:13;101677.98;;;17.91;76.03
57050;BME280;42935;50.966;16.992;2022-09-20T15:36:25;101680.28;;;17.95;74.72
57050;BME280;42935;50.966;16.992;2022-09-20T15:39:38;101686.45;;;16.70;76.25
57050;BME280;42935;50.966;16.992;2022-09-20T15:42:54;101689.46;;;15.89;78.17
57050;BME280;42935;50.966;16.992;2022-09-20T15:46:16;101693.45;;;15.47;79.06
57050;BME280;42935;50.966;16.992;2022-09-20T15:49:26;101704.39;;;14.01;85.55
57050;BME280;42935;50.966;16.992;2022-09-20T15:52:47;101704.51;;;13.64;90.31
57050;BME280;42935;50.966;16.992;2022-09-20T15:59:30;101701.98;;;12.53;100.00
57050;BME280;42935;50.966;16.992;2022-09-20T16:02:41;101707.48;;;12.46;100.00
57050;BME280;42935;50.966;16.992;2022-09-20T16:09:09;101706.26;;;11.95;100.00
57050;BME280;42935;50.966;16.992;2022-09-20T16:12:22;101716.96;;;11.70;100.00
57050;BME280;42935;50.966;16.992;2022-09-20T16:15:33;101720.93;;;11.56;100.00
57050;BME280;42935;50.966;16.992;2022-09-20T16:18:44;101725.34;;;11.39;100.00
57050;BME280;42935;50.966;16.992;2022-09-20T16:22:05;101721.30;;;11.13;100.00
57050;BME280;42935;50.966;16.992;2022-09-20T16:25:12;101732.78;;;11.22;100.00
57050;BME280;42935;50.966;16.992;2022-09-20T16:28:21;101736.53;;;10.99;100.00
57050;BME280;42935;50.966;16.992;2022-09-20T16:31:38;101744.63;;;10.90;100.00
57050;BME280;42935;50.966;16.992;2022-09-20T16:34:50;101750.10;;;10.89;100.00
57050;BME280;42935;50.966;16.992;2022-09-20T16:38:02;101753.04;;;10.88;100.00
57050;BME280;42935;50.966;16.992;2022-09-20T16:41:41;101764.26;;;10.92;100.00
57050;BME280;42935;50.966;16.992;2022-09-20T16:44:51;101774.52;;;10.90;100.00
57050;BME280;42935;50.966;16.992;2022-09-20T16:48:01;101784.38;;;10.80;100.00
57050;BME280;42935;50.966;16.992;2022-09-20T16:51:15;101790.88;;;10.74;100.00
57050;BME280;42935;50.966;16.992;2022-09-20T16:54:25;101785.76;;;10.39;100.00
57050;BME280;42935;50.966;16.992;2022-09-20T16:58:02;101792.50;;;10.44;100.00
57050;BME280;42935;50.966;16.992;2022-09-20T17:01:18;101801.25;;;10.20;100.00
57050;BME280;42935;50.966;16.992;2022-09-20T17:04:29;101814.28;;;10.23;100.00
57050;BME280;42935;50.966;16.992;2022-09-20T17:07:42;101814.49;;;10.17;100.00
57050;BME280;42935;50.966;16.992;2022-09-20T17:10:58;101823.57;;;10.16;100.00
57050;BME280;42935;50.966;16.992;2022-09-20T17:14:20;101837.84;;;10.24;100.00
57050;BME280;42935;50.966;16.992;2022-09-20T17:17:31;101835.45;;;10.27;100.00
57050;BME280;42935;50.966;16.992;2022-09-20T17:20:41;101831.12;;;10.08;100.00
57050;BME280;42935;50.966;16.992;2022-09-20T17:23:50;101840.57;;;10.06;100.00
57050;BME280;42935;50.966;16.992;2022-09-20T17:27:03;101843.59;;;9.96;100.00
57050;BME280;42935;50.966;16.992;2022-09-20T17:30:16;101851.87;;;9.83;100.00
57050;BME280;42935;50.966;16.992;2022-09-20T17:33:35;101861.80;;;9.70;100.00
57050;BME280;42935;50.966;16.992;2022-09-20T17:36:47;101868.70;;;9.74;100.00
57050;BME280;42935;50.966;16.992;2022-09-20T17:39:57;101871.68;;;9.57;100.00
57050;BME280;42935;50.966;16.992;2022-09-20T17:43:08;101878.57;;;9.39;100.00
57050;BME280;42935;50.966;16.992;2022-09-20T17:46:21;101884.04;;;9.43;100.00
57050;BME280;42935;50.966;16.992;2022-09-20T17:49:34;101885.31;;;9.24;100.00
57050;BME280;42935;50.966;16.992;2022-09-20T17:52:49;101888.93;;;9.06;100.00
57050;BME280;42935;50.966;16.992;2022-09-20T17:56:04;101889.83;;;9.07;100.00
57050;BME280;42935;50.966;16.992;2022-09-20T17:59:15;101891.77;;;9.02;100.00
57050;BME280;42935;50.966;16.992;2022-09-20T18:02:26;101895.44;;;8.82;100.00
57050;BME280;42935;50.966;16.992;2022-09-20T18:05:39;101887.07;;;8.63;100.00
57050;BME280;42935;50.966;16.992;2022-09-20T18:08:51;101896.12;;;8.66;100.00
57050;BME280;42935;50.966;16.992;2022-09-20T18:12:04;101895.34;;;8.55;100.00
57050;BME280;42935;50.966;16.992;2022-09-20T18:15:14;101898.73;;;8.52;100.00
57050;BME280;42935;50.966;16.992;2022-09-20T18:18:30;101904.75;;;8.50;100.00
57050;BME280;42935;50.966;16.992;2022-09-20T18:21:45;101907.31;;;8.43;100.00
57050;BME280;42935;50.966;16.992;2022-09-20T18:24:55;101909.81;;;8.41;100.00
57050;BME280;42935;50.966;16.992;2022-09-20T18:28:07;101912.90;;;8.37;100.00
57050;BME280;42935;50.966;16.992;2022-09-20T18:31:18;101918.52;;;8.34;100.00
57050;BME280;42935;50.966;16.992;2022-09-20T18:34:36;101923.64;;;8.42;100.00
57050;BME280;42935;50.966;16.992;2022-09-20T18:37:47;101924.66;;;8.33;100.00
57050;BME280;42935;50.966;16.992;2022-09-20T18:40:59;101930.38;;;8.37;100.00
57050;BME280;42935;50.966;16.992;2022-09-20T18:44:11;101929.99;;;8.27;100.00
57050;BME280;42935;50.966;16.992;2022-09-20T18:47:22;101932.62;;;8.26;100.00
57050;BME280;42935;50.966;16.992;2022-09-20T18:50:30;101928.82;;;8.27;100.00
57050;BME280;42935;50.966;16.992;2022-09-20T18:54:14;101930.52;;;8.24;100.00
57050;BME280;42935;50.966;16.992;2022-09-20T18:57:26;101931.39;;;8.18;100.00
57050;BME280;42935;50.966;16.992;2022-09-20T19:00:54;101935.49;;;8.21;100.00
57050;BME280;42935;50.966;16.992;2022-09-20T19:07:39;101930.23;;;8.17;100.00
57050;BME280;42935;50.966;16.992;2022-09-20T19:10:53;101942.41;;;8.14;100.00
57050;BME280;42935;50.966;16.992;2022-09-20T19:17:43;101952.31;;;8.10;100.00
57050;BME280;42935;50.966;16.992;2022-09-20T19:27:35;101962.03;;;8.12;100.00
57050;BME280;42935;50.966;16.992;2022-09-20T19:30:46;101965.91;;;8.09;100.00
57050;BME280;42935;50.966;16.992;2022-09-20T19:33:58;101959.13;;;8.06;100.00
57050;BME280;42935;50.966;16.992;2022-09-20T19:40:43;101973.59;;;8.09;100.00
57050;BME280;42935;50.966;16.992;2022-09-20T19:51:13;101995.66;;;7.97;100.00
57050;BME280;42935;50.966;16.992;2022-09-20T19:54:29;101992.32;;;7.99;100.00
57050;BME280;42935;50.966;16.992;2022-09-20T19:57:43;101991.66;;;7.99;100.00
57050;BME280;42935;50.966;16.992;2022-09-20T20:00:54;101999.86;;;7.97;100.00
57050;BME280;42935;50.966;16.992;2022-09-20T20:04:07;102003.79;;;7.91;100.00
57050;BME280;42935;50.966;16.992;2022-09-20T20:20:58;102016.69;;;7.84;100.00
57050;BME280;42935;50.966;16.992;2022-09-20T20:27:33;102024.05;;;7.71;100.00
57050;BME280;42935;50.966;16.992;2022-09-20T20:30:46;102019.34;;;7.64;100.00
57050;BME280;42935;50.966;16.992;2022-09-20T20:33:56;102029.40;;;7.67;100.00
57050;BME280;42935;50.966;16.992;2022-09-20T20:37:07;102030.91;;;7.68;100.00
57050;BME280;42935;50.966;16.992;2022-09-20T20:40:55;102023.45;;;7.63;100.00
57050;BME280;42935;50.966;16.992;2022-09-20T20:44:04;102026.04;;;7.66;100.00
57050;BME280;42935;50.966;16.992;2022-09-20T20:47:10;102028.16;;;7.66;100.00
57050;BME280;42935;50.966;16.992;2022-09-20T20:50:21;102036.78;;;7.66;100.00
57050;BME280;42935;50.966;16.992;2022-09-20T20:53:33;102028.18;;;7.59;100.00
57050;BME280;42935;50.966;16.992;2022-09-20T20:56:48;102025.95;;;7.60;100.00
57050;BME280;42935;50.966;16.992;2022-09-20T20:59:59;102035.09;;;7.59;100.00
57050;BME280;42935;50.966;16.992;2022-09-20T21:03:08;102034.52;;;7.60;100.00
57050;BME280;42935;50.966;16.992;2022-09-20T21:06:23;102037.63;;;7.59;100.00
57050;BME280;42935;50.966;16.992;2022-09-20T21:09:36;102038.45;;;7.56;100.00
57050;BME280;42935;50.966;16.992;2022-09-20T21:12:52;102035.98;;;7.51;100.00
57050;BME280;42935;50.966;16.992;2022-09-20T21:16:09;102031.18;;;7.40;100.00
57050;BME280;42935;50.966;16.992;2022-09-20T21:19:22;102033.30;;;7.41;100.00
57050;BME280;42935;50.966;16.992;2022-09-20T21:22:33;102039.17;;;7.41;100.00
57050;BME280;42935;50.966;16.992;2022-09-20T21:25:45;102041.31;;;7.37;100.00
57050;BME280;42935;50.966;16.992;2022-09-20T21:29:01;102044.12;;;7.27;100.00
57050;BME280;42935;50.966;16.992;2022-09-20T21:32:11;102046.22;;;7.29;100.00
57050;BME280;42935;50.966;16.992;2022-09-20T21:35:22;102052.30;;;7.31;100.00
57050;BME280;42935;50.966;16.992;2022-09-20T21:38:34;102054.49;;;7.25;100.00
57050;BME280;42935;50.966;16.992;2022-09-20T21:41:46;102057.74;;;7.23;100.00
57050;BME280;42935;50.966;16.992;2022-09-20T21:44:57;102047.27;;;7.14;100.00
57050;BME280;42935;50.966;16.992;2022-09-20T21:48:03;102055.33;;;7.18;100.00
57050;BME280;42935;50.966;16.992;2022-09-20T21:51:16;102058.50;;;7.18;100.00
57050;BME280;42935;50.966;16.992;2022-09-20T21:54:23;102062.77;;;7.21;100.00
57050;BME280;42935;50.966;16.992;2022-09-20T21:57:43;102064.44;;;7.21;100.00
57050;BME280;42935;50.966;16.992;2022-09-20T22:01:00;102066.98;;;7.21;100.00
57050;BME280;42935;50.966;16.992;2022-09-20T22:04:11;102059.88;;;7.12;100.00
57050;BME280;42935;50.966;16.992;2022-09-20T22:07:22;102070.73;;;7.13;100.00
57050;BME280;42935;50.966;16.992;2022-09-20T22:10:32;102071.37;;;7.07;100.00
57050;BME280;42935;50.966;16.992;2022-09-20T22:13:43;102071.38;;;7.02;100.00
57050;BME280;42935;50.966;16.992;2022-09-20T22:16:55;102072.89;;;6.98;100.00
57050;BME280;42935;50.966;16.992;2022-09-20T22:20:08;102073.25;;;7.00;100.00
57050;BME280;42935;50.966;16.992;2022-09-20T22:23:21;102066.30;;;6.95;100.00
57050;BME280;42935;50.966;16.992;2022-09-20T22:26:33;102070.37;;;6.95;100.00
57050;BME280;42935;50.966;16.992;2022-09-20T22:29:44;102068.55;;;6.88;100.00
57050;BME280;42935;50.966;16.992;2022-09-20T22:33:02;102072.76;;;6.88;100.00
57050;BME280;42935;50.966;16.992;2022-09-20T22:36:21;102074.22;;;6.87;100.00
57050;BME280;42935;50.966;16.992;2022-09-20T22:39:33;102078.57;;;6.86;100.00
57050;BME280;42935;50.966;16.992;2022-09-20T22:42:44;102074.95;;;6.90;100.00
57050;BME280;42935;50.966;16.992;2022-09-20T22:46:03;102073.50;;;6.87;100.00
57050;BME280;42935;50.966;16.992;2022-09-20T22:49:16;102066.25;;;6.82;100.00
57050;BME280;42935;50.966;16.992;2022-09-20T22:52:26;102064.91;;;6.83;100.00
57050;BME280;42935;50.966;16.992;2022-09-20T22:55:39;102064.46;;;6.83;100.00
57050;BME280;42935;50.966;16.992;2022-09-20T22:58:54;102073.96;;;6.88;100.00
57050;BME280;42935;50.966;16.992;2022-09-20T23:02:08;102069.61;;;6.85;100.00
57050;BME280;42935;50.966;16.992;2022-09-20T23:05:18;102064.28;;;6.77;100.00
57050;BME280;42935;50.966;16.992;2022-09-20T23:08:24;102060.66;;;6.79;100.00
57050;BME280;42935;50.966;16.992;2022-09-20T23:11:35;102072.24;;;6.79;100.00
57050;BME280;42935;50.966;16.992;2022-09-20T23:14:46;102067.31;;;6.76;100.00
57050;BME280;42935;50.966;16.992;2022-09-20T23:17:56;102077.80;;;6.84;100.00
57050;BME280;42935;50.966;16.992;2022-09-20T23:21:11;102081.39;;;6.86;100.00
57050;BME280;42935;50.966;16.992;2022-09-20T23:24:23;102081.77;;;6.79;100.00
57050;BME280;42935;50.966;16.992;2022-09-20T23:27:33;102075.59;;;6.76;100.00
57050;BME280;42935;50.966;16.992;2022-09-20T23:30:47;102082.77;;;6.80;100.00
57050;BME280;42935;50.966;16.992;2022-09-20T23:33:58;102087.37;;;6.75;100.00
57050;BME280;42935;50.966;16.992;2022-09-20T23:37:10;102084.73;;;6.78;100.00
57050;BME280;42935;50.966;16.992;2022-09-20T23:40:21;102076.45;;;6.68;100.00
57050;BME280;42935;50.966;16.992;2022-09-20T23:43:32;102085.34;;;6.73;100.00
57050;BME280;42935;50.966;16.992;2022-09-20T23:46:44;102085.90;;;6.78;100.00
57050;BME280;42935;50.966;16.992;2022-09-20T23:49:54;102085.28;;;6.75;100.00
57050;BME280;42935;50.966;16.992;2022-09-20T23:53:04;102083.48;;;6.72;100.00
57050;BME280;42935;50.966;16.992;2022-09-20T23:56:13;102086.65;;;6.72;100.00
57050;BME280;42935;50.966;16.992;2022-09-20T23:59:26;102087.42;;;6.72;100.00
